Sandy Lake Airport
CZSJ : now visible

Airfield :











YOU CAN JOIN US ON...

 
LOGIN :

Register | Disclaimer

   EN    FR    IT 

 









Legend :    VFR   Marginal VFR   IFR   Intensive IFR   Very Intensive IFR
Visi :
Ceiling :
>= 8 km
>= 3000ft
5 to 8 km
1000 to 3000 ft
1500m to 5 km
500 to 1000 ft
800 to 1500m
200 to 500 ft
< 800m
< 200 ft
Symbols :   Thunderstorms  Fog  Heavy snow  Heavy precipitations  Wind > 20 kt







- Airport Elevation : 951 ft
- IATA code : ZSJ


CZSJ - Sandy Lake

CURRENT METAR :
  • 202000Z AUTO 12008G17KT 9SM FEW120 BKN220 17/13 A2985 RMK SLP118 DENSITY ALT 1500FT

EXPIRED METARs :
  • 201900Z AUTO 11011G20KT 9SM SCT160 OVC180 17/13 A2986 RMK PRESFR SLP121 DENSITY ALT 1400FT
  • 201800Z AUTO 14010G16KT 110V170 9SM SCT140 BKN160 16/12 A2991 RMK SLP140 DENSITY ALT 1200FT
  • 201700Z AUTO 14006KT 110V170 9SM BKN110 BKN130 BKN150 15/13 A3000 RMK PRESFR SLP171 DENSITY ALT 1100FT

TAF TAF CZSJ
Valid from the 20 at 16:00 until the 20 at 22:00 UTC


201538Z 2016/2022 12007KT P6SM BKN240
FM201800 15008KT P6SM BKN120 OVC180 RMK FCST BASED ON AUTO OBS. NXT FCST WILL BE ISSUED AT 210945Z
No reported NOTAMs for that airfield.



MET'MAP, your aeronautical weather chart ! - Copyright ORBIFLY December 2007 - Disclaimer

ORBIFLY MET'MAP TEAM :

Programming & Development : Alexandra Zaïnal
Concept & Development : Baudouin d'Aumeries
Co-Development & Prog : Marc-Olivier Méhu
Technical & hardware support : Manuel Goepfert

Contact : metmap@orbifly.com




SOURCES & CREDITS :

   NOAA       Earth
Advisory